Startpagina
METAR-TAF:

METAR-TAF

Vliegvelden :

Luchthaven Herat

Herat, Afghanistan

breedte: 34-13N, lengte: 062-13E, hoogte: 964 m

Actueel weer

Dit bericht is 6 uur en het 15 minuten geleden gemaakt, om 17:30 UTC
Wind 2 kt uit variabele richting
Temperatuur 24°C
Vochtigheid 15%
Druk 1014 hPa
Zicht 10 km of meer
geen wolken onder 1500 m en geen cumulonimbus

METAR: OAHR 311730Z VRB02KT CAVOK 24/M04 Q1014 RMK CLOSED A2995 BLU

Tijdstip: 04:15 (23:45 UTC)

Verwachting

Dit bericht is 6 uur en het 45 minuten geleden gemaakt, om 17:00 UTC
Verwachting geldig van 31 om 18 UTC tot 01 om 18 UTC
Wind 3 kt uit variabele richting
Zicht 10 km of meer
geen wolken onder 1500 m en geen cumulonimbus
Wijzigt naar
van 01 om 08 UTC tot 01 om 10 UTC
Wind 12 kt uit het noordnoordoosten met uitschieters tot 22 kt
Wijzigt naar
van 01 om 15 UTC tot 01 om 17 UTC
Wind 3 kt uit variabele richting

TAF: OAHR 311700Z 3118/0118 VRB03KT CAVOK BECMG 0108/0110 03012G22KT BECMG 0115/0117 VRB03KT

Waarnemingen en weersverwachtingen van meer dan 4000 vliegvelden (METAR en TAF).

De beschikbare stations zijn de gele en rode punten op de kaart.

Ga met uw muis naar het station om de naam te zien.

Klik dan om waarnemingen en weersverwachtingen te zien.

kaart wijzigen: klik op de groene knoppen met een zwart kruis om in te zoomen, op de groene knop met een streepje om uit te zoomen of op de groene pijlen voor aangrenzende kaarten.


METAR-TAF: